sensor_id;sensor_type;location;lat;lon;timestamp;P1;durP1;ratioP1;P2;durP2;ratioP2
29214;SDS011;16252;49.816;7.964;2022-09-09T00:01:06;0.98;;;0.40;;
29214;SDS011;16252;49.816;7.964;2022-09-09T00:03:44;1.05;;;0.73;;
29214;SDS011;16252;49.816;7.964;2022-09-09T00:06:14;1.08;;;0.80;;
29214;SDS011;16252;49.816;7.964;2022-09-09T00:08:51;1.17;;;0.43;;
29214;SDS011;16252;49.816;7.964;2022-09-09T00:11:21;0.95;;;0.60;;
29214;SDS011;16252;49.816;7.964;2022-09-09T00:13:53;0.70;;;0.40;;
29214;SDS011;16252;49.816;7.964;2022-09-09T00:16:25;0.65;;;0.52;;
29214;SDS011;16252;49.816;7.964;2022-09-09T00:18:57;0.50;;;0.50;;
29214;SDS011;16252;49.816;7.964;2022-09-09T00:24:40;2.42;;;0.75;;
29214;SDS011;16252;49.816;7.964;2022-09-09T00:27:10;2.53;;;0.80;;
29214;SDS011;16252;49.816;7.964;2022-09-09T00:30:13;1.27;;;0.68;;
29214;SDS011;16252;49.816;7.964;2022-09-09T00:32:43;0.88;;;0.63;;
29214;SDS011;16252;49.816;7.964;2022-09-09T00:37:34;1.55;;;0.60;;
29214;SDS011;16252;49.816;7.964;2022-09-09T00:40:01;2.63;;;0.65;;
29214;SDS011;16252;49.816;7.964;2022-09-09T00:42:36;1.77;;;0.60;;
29214;SDS011;16252;49.816;7.964;2022-09-09T00:48:20;2.65;;;0.50;;
29214;SDS011;16252;49.816;7.964;2022-09-09T00:56:13;1.23;;;0.68;;
29214;SDS011;16252;49.816;7.964;2022-09-09T00:58:47;1.35;;;0.63;;
29214;SDS011;16252;49.816;7.964;2022-09-09T01:01:23;2.00;;;0.60;;
29214;SDS011;16252;49.816;7.964;2022-09-09T01:03:55;1.02;;;0.50;;
29214;SDS011;16252;49.816;7.964;2022-09-09T01:17:00;0.80;;;0.65;;
29214;SDS011;16252;49.816;7.964;2022-09-09T01:19:41;0.85;;;0.47;;
29214;SDS011;16252;49.816;7.964;2022-09-09T01:28:09;2.22;;;0.60;;
29214;SDS011;16252;49.816;7.964;2022-09-09T01:30:39;1.33;;;0.60;;
29214;SDS011;16252;49.816;7.964;2022-09-09T01:33:07;1.40;;;0.60;;
29214;SDS011;16252;49.816;7.964;2022-09-09T01:38:27;2.58;;;0.70;;
29214;SDS011;16252;49.816;7.964;2022-09-09T01:40:54;2.78;;;0.68;;
29214;SDS011;16252;49.816;7.964;2022-09-09T01:43:20;2.45;;;0.60;;
29214;SDS011;16252;49.816;7.964;2022-09-09T01:45:48;2.40;;;0.70;;
29214;SDS011;16252;49.816;7.964;2022-09-09T01:48:17;1.02;;;0.55;;
29214;SDS011;16252;49.816;7.964;2022-09-09T01:50:43;2.03;;;0.95;;
29214;SDS011;16252;49.816;7.964;2022-09-09T01:53:09;1.10;;;0.75;;
29214;SDS011;16252;49.816;7.964;2022-09-09T01:55:39;1.42;;;0.60;;
29214;SDS011;16252;49.816;7.964;2022-09-09T01:58:13;4.13;;;0.80;;
29214;SDS011;16252;49.816;7.964;2022-09-09T02:03:40;0.90;;;0.57;;
29214;SDS011;16252;49.816;7.964;2022-09-09T02:06:28;1.48;;;0.70;;
29214;SDS011;16252;49.816;7.964;2022-09-09T02:08:59;4.78;;;0.77;;
29214;SDS011;16252;49.816;7.964;2022-09-09T02:11:28;1.80;;;0.68;;
29214;SDS011;16252;49.816;7.964;2022-09-09T02:13:56;1.45;;;0.68;;
29214;SDS011;16252;49.816;7.964;2022-09-09T02:16:28;2.83;;;0.60;;
29214;SDS011;16252;49.816;7.964;2022-09-09T02:21:38;2.00;;;0.60;;
29214;SDS011;16252;49.816;7.964;2022-09-09T02:24:07;1.75;;;0.70;;
29214;SDS011;16252;49.816;7.964;2022-09-09T02:26:36;1.20;;;0.45;;
29214;SDS011;16252;49.816;7.964;2022-09-09T02:31:33;1.17;;;0.40;;
29214;SDS011;16252;49.816;7.964;2022-09-09T02:34:00;3.45;;;0.70;;
29214;SDS011;16252;49.816;7.964;2022-09-09T02:36:29;3.08;;;0.65;;
29214;SDS011;16252;49.816;7.964;2022-09-09T02:38:58;0.82;;;0.50;;
29214;SDS011;16252;49.816;7.964;2022-09-09T02:41:26;0.50;;;0.40;;
29214;SDS011;16252;49.816;7.964;2022-09-09T02:43:57;1.88;;;0.60;;
29214;SDS011;16252;49.816;7.964;2022-09-09T02:48:58;1.17;;;0.68;;
29214;SDS011;16252;49.816;7.964;2022-09-09T02:56:33;2.75;;;0.77;;
29214;SDS011;16252;49.816;7.964;2022-09-09T02:59:05;2.22;;;0.70;;
29214;SDS011;16252;49.816;7.964;2022-09-09T03:01:30;5.28;;;1.10;;
29214;SDS011;16252;49.816;7.964;2022-09-09T03:03:56;0.70;;;0.60;;
29214;SDS011;16252;49.816;7.964;2022-09-09T03:06:22;1.75;;;0.60;;
29214;SDS011;16252;49.816;7.964;2022-09-09T03:08:47;0.75;;;0.45;;
29214;SDS011;16252;49.816;7.964;2022-09-09T03:11:14;4.78;;;1.73;;
29214;SDS011;16252;49.816;7.964;2022-09-09T03:13:40;1.90;;;0.63;;
29214;SDS011;16252;49.816;7.964;2022-09-09T03:16:05;1.55;;;1.10;;
29214;SDS011;16252;49.816;7.964;2022-09-09T03:18:30;2.88;;;0.80;;
29214;SDS011;16252;49.816;7.964;2022-09-09T03:20:57;1.65;;;0.80;;
29214;SDS011;16252;49.816;7.964;2022-09-09T03:23:23;1.52;;;0.73;;
29214;SDS011;16252;49.816;7.964;2022-09-09T03:25:49;1.27;;;0.60;;
29214;SDS011;16252;49.816;7.964;2022-09-09T03:28:16;1.48;;;0.70;;
29214;SDS011;16252;49.816;7.964;2022-09-09T03:30:41;2.47;;;0.98;;
29214;SDS011;16252;49.816;7.964;2022-09-09T03:33:07;1.67;;;0.68;;
29214;SDS011;16252;49.816;7.964;2022-09-09T03:35:32;1.33;;;0.50;;
29214;SDS011;16252;49.816;7.964;2022-09-09T03:37:57;2.88;;;1.00;;
29214;SDS011;16252;49.816;7.964;2022-09-09T03:40:23;1.42;;;0.63;;
29214;SDS011;16252;49.816;7.964;2022-09-09T03:42:48;2.45;;;0.60;;
29214;SDS011;16252;49.816;7.964;2022-09-09T03:45:13;1.45;;;0.60;;
29214;SDS011;16252;49.816;7.964;2022-09-09T03:47:39;2.25;;;0.50;;
29214;SDS011;16252;49.816;7.964;2022-09-09T03:50:05;2.63;;;1.02;;
29214;SDS011;16252;49.816;7.964;2022-09-09T03:52:34;3.17;;;0.95;;
29214;SDS011;16252;49.816;7.964;2022-09-09T03:57:29;1.00;;;0.45;;
29214;SDS011;16252;49.816;7.964;2022-09-09T03:59:54;2.50;;;0.63;;
29214;SDS011;16252;49.816;7.964;2022-09-09T04:02:20;1.42;;;0.60;;
29214;SDS011;16252;49.816;7.964;2022-09-09T04:04:46;2.13;;;0.52;;
29214;SDS011;16252;49.816;7.964;2022-09-09T04:07:11;2.42;;;0.75;;
29214;SDS011;16252;49.816;7.964;2022-09-09T04:09:36;1.48;;;0.50;;
29214;SDS011;16252;49.816;7.964;2022-09-09T04:12:02;1.52;;;0.88;;
29214;SDS011;16252;49.816;7.964;2022-09-09T04:14:27;1.85;;;0.70;;
29214;SDS011;16252;49.816;7.964;2022-09-09T04:16:54;2.15;;;0.63;;
29214;SDS011;16252;49.816;7.964;2022-09-09T04:19:20;1.67;;;0.82;;
29214;SDS011;16252;49.816;7.964;2022-09-09T04:21:45;2.05;;;0.50;;
29214;SDS011;16252;49.816;7.964;2022-09-09T04:24:10;1.20;;;0.70;;
29214;SDS011;16252;49.816;7.964;2022-09-09T04:26:36;1.88;;;0.73;;
29214;SDS011;16252;49.816;7.964;2022-09-09T04:29:02;2.78;;;0.75;;
29214;SDS011;16252;49.816;7.964;2022-09-09T04:31:29;1.30;;;0.50;;
29214;SDS011;16252;49.816;7.964;2022-09-09T04:33:54;1.73;;;0.70;;
29214;SDS011;16252;49.816;7.964;2022-09-09T04:36:19;1.15;;;0.75;;
29214;SDS011;16252;49.816;7.964;2022-09-09T04:38:45;2.05;;;1.35;;
29214;SDS011;16252;49.816;7.964;2022-09-09T04:41:11;3.60;;;0.85;;
29214;SDS011;16252;49.816;7.964;2022-09-09T04:43:37;1.60;;;0.50;;
29214;SDS011;16252;49.816;7.964;2022-09-09T04:46:03;0.65;;;0.40;;
29214;SDS011;16252;49.816;7.964;2022-09-09T04:48:28;2.50;;;0.40;;
29214;SDS011;16252;49.816;7.964;2022-09-09T04:50:54;1.67;;;0.60;;
29214;SDS011;16252;49.816;7.964;2022-09-09T04:53:21;1.50;;;0.98;;
29214;SDS011;16252;49.816;7.964;2022-09-09T04:55:47;1.65;;;0.65;;
29214;SDS011;16252;49.816;7.964;2022-09-09T04:58:12;1.95;;;0.57;;
29214;SDS011;16252;49.816;7.964;2022-09-09T05:00:38;4.35;;;0.98;;
29214;SDS011;16252;49.816;7.964;2022-09-09T05:03:04;3.17;;;0.65;;
29214;SDS011;16252;49.816;7.964;2022-09-09T05:05:30;2.15;;;0.63;;
29214;SDS011;16252;49.816;7.964;2022-09-09T05:08:00;1.98;;;0.70;;
29214;SDS011;16252;49.816;7.964;2022-09-09T05:10:29;1.08;;;0.50;;
29214;SDS011;16252;49.816;7.964;2022-09-09T05:12:55;2.67;;;0.70;;
29214;SDS011;16252;49.816;7.964;2022-09-09T05:15:21;1.20;;;0.50;;
29214;SDS011;16252;49.816;7.964;2022-09-09T05:17:46;1.52;;;0.57;;
29214;SDS011;16252;49.816;7.964;2022-09-09T05:20:11;1.83;;;0.70;;
29214;SDS011;16252;49.816;7.964;2022-09-09T05:22:37;1.30;;;0.60;;
29214;SDS011;16252;49.816;7.964;2022-09-09T05:25:02;1.65;;;0.65;;
29214;SDS011;16252;49.816;7.964;2022-09-09T05:27:28;1.70;;;0.70;;
29214;SDS011;16252;49.816;7.964;2022-09-09T05:29:56;1.33;;;0.70;;
29214;SDS011;16252;49.816;7.964;2022-09-09T05:32:22;2.90;;;1.05;;
29214;SDS011;16252;49.816;7.964;2022-09-09T05:34:47;1.52;;;0.70;;
29214;SDS011;16252;49.816;7.964;2022-09-09T05:37:13;1.75;;;0.70;;
29214;SDS011;16252;49.816;7.964;2022-09-09T05:39:38;2.33;;;0.77;;
29214;SDS011;16252;49.816;7.964;2022-09-09T05:42:03;6.22;;;0.88;;
29214;SDS011;16252;49.816;7.964;2022-09-09T05:44:29;2.85;;;0.55;;
29214;SDS011;16252;49.816;7.964;2022-09-09T05:46:55;1.98;;;0.80;;
29214;SDS011;16252;49.816;7.964;2022-09-09T05:49:20;1.45;;;0.70;;
29214;SDS011;16252;49.816;7.964;2022-09-09T05:51:46;2.72;;;1.00;;
29214;SDS011;16252;49.816;7.964;2022-09-09T05:54:12;2.05;;;0.75;;
29214;SDS011;16252;49.816;7.964;2022-09-09T05:56:40;1.05;;;0.68;;
29214;SDS011;16252;49.816;7.964;2022-09-09T05:59:05;1.55;;;0.82;;
29214;SDS011;16252;49.816;7.964;2022-09-09T06:01:32;3.17;;;0.70;;
29214;SDS011;16252;49.816;7.964;2022-09-09T06:03:59;4.80;;;0.80;;
29214;SDS011;16252;49.816;7.964;2022-09-09T06:06:26;2.35;;;0.50;;
29214;SDS011;16252;49.816;7.964;2022-09-09T06:08:55;2.40;;;0.70;;
29214;SDS011;16252;49.816;7.964;2022-09-09T06:11:26;1.50;;;0.60;;
29214;SDS011;16252;49.816;7.964;2022-09-09T06:13:52;2.92;;;0.70;;
29214;SDS011;16252;49.816;7.964;2022-09-09T06:16:20;4.13;;;0.98;;
29214;SDS011;16252;49.816;7.964;2022-09-09T06:18:48;2.30;;;1.00;;
29214;SDS011;16252;49.816;7.964;2022-09-09T06:21:16;1.63;;;0.52;;
29214;SDS011;16252;49.816;7.964;2022-09-09T06:23:46;0.57;;;0.55;;
29214;SDS011;16252;49.816;7.964;2022-09-09T06:28:39;1.88;;;0.70;;
29214;SDS011;16252;49.816;7.964;2022-09-09T06:31:07;1.17;;;0.80;;
29214;SDS011;16252;49.816;7.964;2022-09-09T06:33:34;4.30;;;0.82;;
29214;SDS011;16252;49.816;7.964;2022-09-09T06:36:02;2.72;;;0.70;;
29214;SDS011;16252;49.816;7.964;2022-09-09T06:38:31;3.10;;;0.77;;
29214;SDS011;16252;49.816;7.964;2022-09-09T06:40:57;3.13;;;1.00;;
29214;SDS011;16252;49.816;7.964;2022-09-09T06:43:24;3.35;;;0.80;;
29214;SDS011;16252;49.816;7.964;2022-09-09T06:48:19;1.60;;;0.77;;
29214;SDS011;16252;49.816;7.964;2022-09-09T06:50:45;1.77;;;0.90;;
29214;SDS011;16252;49.816;7.964;2022-09-09T06:53:10;4.68;;;1.05;;
29214;SDS011;16252;49.816;7.964;2022-09-09T06:55:35;3.45;;;1.10;;
29214;SDS011;16252;49.816;7.964;2022-09-09T06:58:00;3.53;;;1.20;;
29214;SDS011;16252;49.816;7.964;2022-09-09T07:00:27;2.15;;;1.08;;
29214;SDS011;16252;49.816;7.964;2022-09-09T07:02:53;2.42;;;1.00;;
29214;SDS011;16252;49.816;7.964;2022-09-09T07:05:18;1.60;;;0.93;;
29214;SDS011;16252;49.816;7.964;2022-09-09T07:07:44;1.58;;;1.20;;
29214;SDS011;16252;49.816;7.964;2022-09-09T07:10:09;4.15;;;0.93;;
29214;SDS011;16252;49.816;7.964;2022-09-09T07:12:35;2.97;;;1.45;;
29214;SDS011;16252;49.816;7.964;2022-09-09T07:15:00;2.78;;;1.20;;
29214;SDS011;16252;49.816;7.964;2022-09-09T07:17:25;4.57;;;1.75;;
29214;SDS011;16252;49.816;7.964;2022-09-09T07:19:53;2.88;;;1.27;;
29214;SDS011;16252;49.816;7.964;2022-09-09T07:22:18;2.00;;;1.10;;
29214;SDS011;16252;49.816;7.964;2022-09-09T07:24:45;4.10;;;1.40;;
29214;SDS011;16252;49.816;7.964;2022-09-09T07:27:10;3.15;;;1.40;;
29214;SDS011;16252;49.816;7.964;2022-09-09T07:29:35;1.90;;;1.30;;
29214;SDS011;16252;49.816;7.964;2022-09-09T07:32:01;3.67;;;1.27;;
29214;SDS011;16252;49.816;7.964;2022-09-09T07:34:27;2.22;;;1.00;;
29214;SDS011;16252;49.816;7.964;2022-09-09T07:36:52;2.35;;;1.20;;
29214;SDS011;16252;49.816;7.964;2022-09-09T07:39:18;2.47;;;1.13;;
29214;SDS011;16252;49.816;7.964;2022-09-09T07:41:44;2.70;;;1.20;;
29214;SDS011;16252;49.816;7.964;2022-09-09T07:44:12;2.85;;;1.13;;
29214;SDS011;16252;49.816;7.964;2022-09-09T07:46:39;2.08;;;1.20;;
29214;SDS011;16252;49.816;7.964;2022-09-09T07:49:06;2.53;;;1.27;;
29214;SDS011;16252;49.816;7.964;2022-09-09T07:51:33;1.90;;;1.00;;
29214;SDS011;16252;49.816;7.964;2022-09-09T07:54:01;4.78;;;1.60;;
29214;SDS011;16252;49.816;7.964;2022-09-09T07:56:29;3.78;;;1.08;;
29214;SDS011;16252;49.816;7.964;2022-09-09T07:58:56;2.10;;;1.10;;
29214;SDS011;16252;49.816;7.964;2022-09-09T08:03:58;5.25;;;1.50;;
29214;SDS011;16252;49.816;7.964;2022-09-09T08:06:26;3.50;;;1.23;;
29214;SDS011;16252;49.816;7.964;2022-09-09T08:08:53;3.45;;;1.10;;
29214;SDS011;16252;49.816;7.964;2022-09-09T08:11:19;4.15;;;1.33;;
29214;SDS011;16252;49.816;7.964;2022-09-09T08:13:45;7.43;;;1.33;;
29214;SDS011;16252;49.816;7.964;2022-09-09T08:16:14;3.05;;;1.20;;
29214;SDS011;16252;49.816;7.964;2022-09-09T08:18:49;2.58;;;1.40;;
29214;SDS011;16252;49.816;7.964;2022-09-09T08:21:20;5.25;;;1.52;;
29214;SDS011;16252;49.816;7.964;2022-09-09T08:23:49;5.82;;;1.17;;
29214;SDS011;16252;49.816;7.964;2022-09-09T08:26:18;3.77;;;1.43;;
29214;SDS011;16252;49.816;7.964;2022-09-09T08:28:48;2.97;;;1.45;;
29214;SDS011;16252;49.816;7.964;2022-09-09T08:31:17;4.82;;;1.20;;
29214;SDS011;16252;49.816;7.964;2022-09-09T08:33:45;3.28;;;1.05;;
29214;SDS011;16252;49.816;7.964;2022-09-09T08:36:11;2.63;;;0.93;;
29214;SDS011;16252;49.816;7.964;2022-09-09T08:38:40;2.83;;;1.08;;
29214;SDS011;16252;49.816;7.964;2022-09-09T08:44:00;4.93;;;1.40;;
29214;SDS011;16252;49.816;7.964;2022-09-09T08:46:49;4.33;;;0.83;;
29214;SDS011;16252;49.816;7.964;2022-09-09T08:49:33;2.40;;;0.82;;
29214;SDS011;16252;49.816;7.964;2022-09-09T08:52:25;1.80;;;0.80;;
29214;SDS011;16252;49.816;7.964;2022-09-09T08:54:52;2.55;;;0.98;;
29214;SDS011;16252;49.816;7.964;2022-09-09T08:57:25;3.25;;;1.30;;
29214;SDS011;16252;49.816;7.964;2022-09-09T08:59:52;2.20;;;0.90;;
29214;SDS011;16252;49.816;7.964;2022-09-09T09:02:24;2.85;;;0.80;;
29214;SDS011;16252;49.816;7.964;2022-09-09T09:05:05;1.48;;;0.73;;
29214;SDS011;16252;49.816;7.964;2022-09-09T09:10:50;2.53;;;0.75;;
29214;SDS011;16252;49.816;7.964;2022-09-09T09:16:19;3.17;;;0.93;;
29214;SDS011;16252;49.816;7.964;2022-09-09T09:19:04;2.17;;;0.65;;
29214;SDS011;16252;49.816;7.964;2022-09-09T09:21:45;3.85;;;1.23;;
29214;SDS011;16252;49.816;7.964;2022-09-09T09:24:19;1.85;;;0.77;;
29214;SDS011;16252;49.816;7.964;2022-09-09T09:26:51;1.95;;;0.60;;
29214;SDS011;16252;49.816;7.964;2022-09-09T09:29:19;4.50;;;1.00;;
29214;SDS011;16252;49.816;7.964;2022-09-09T09:31:53;2.10;;;0.90;;
29214;SDS011;16252;49.816;7.964;2022-09-09T09:34:22;2.97;;;0.90;;
29214;SDS011;16252;49.816;7.964;2022-09-09T09:36:55;3.38;;;0.88;;
29214;SDS011;16252;49.816;7.964;2022-09-09T09:39:29;2.58;;;0.85;;
29214;SDS011;16252;49.816;7.964;2022-09-09T09:42:09;2.92;;;0.80;;
29214;SDS011;16252;49.816;7.964;2022-09-09T09:44:38;2.58;;;0.88;;
29214;SDS011;16252;49.816;7.964;2022-09-09T09:47:08;1.98;;;0.80;;
29214;SDS011;16252;49.816;7.964;2022-09-09T09:49:56;3.20;;;0.70;;
29214;SDS011;16252;49.816;7.964;2022-09-09T09:52:26;2.40;;;1.10;;
29214;SDS011;16252;49.816;7.964;2022-09-09T09:54:54;2.55;;;0.95;;
29214;SDS011;16252;49.816;7.964;2022-09-09T09:57:26;2.45;;;1.05;;
29214;SDS011;16252;49.816;7.964;2022-09-09T10:00:03;2.60;;;0.80;;
29214;SDS011;16252;49.816;7.964;2022-09-09T10:02:31;3.53;;;1.20;;
29214;SDS011;16252;49.816;7.964;2022-09-09T10:05:04;1.70;;;0.73;;
29214;SDS011;16252;49.816;7.964;2022-09-09T10:07:45;4.18;;;0.90;;
29214;SDS011;16252;49.816;7.964;2022-09-09T10:10:12;6.57;;;0.70;;
29214;SDS011;16252;49.816;7.964;2022-09-09T10:15:26;2.10;;;0.80;;
29214;SDS011;16252;49.816;7.964;2022-09-09T10:18:08;2.70;;;0.80;;
29214;SDS011;16252;49.816;7.964;2022-09-09T10:21:35;1.00;;;0.60;;
29214;SDS011;16252;49.816;7.964;2022-09-09T10:23:46;1.20;;;0.70;;
29214;SDS011;16252;49.816;7.964;2022-09-09T10:40:42;1.85;;;1.05;;
29214;SDS011;16252;49.816;7.964;2022-09-09T10:46:10;1.65;;;0.47;;
29214;SDS011;16252;49.816;7.964;2022-09-09T10:56:42;1.40;;;0.68;;
29214;SDS011;16252;49.816;7.964;2022-09-09T10:59:20;1.33;;;0.60;;
29214;SDS011;16252;49.816;7.964;2022-09-09T11:02:05;2.55;;;0.70;;
29214;SDS011;16252;49.816;7.964;2022-09-09T11:04:41;1.25;;;0.52;;
29214;SDS011;16252;49.816;7.964;2022-09-09T11:07:10;2.08;;;0.80;;
29214;SDS011;16252;49.816;7.964;2022-09-09T11:09:41;2.33;;;0.80;;
29214;SDS011;16252;49.816;7.964;2022-09-09T11:12:15;2.25;;;0.93;;
29214;SDS011;16252;49.816;7.964;2022-09-09T11:14:45;2.08;;;0.75;;
29214;SDS011;16252;49.816;7.964;2022-09-09T11:17:26;0.93;;;0.60;;
29214;SDS011;16252;49.816;7.964;2022-09-09T11:20:00;1.00;;;0.45;;
29214;SDS011;16252;49.816;7.964;2022-09-09T11:22:27;1.17;;;0.50;;
29214;SDS011;16252;49.816;7.964;2022-09-09T11:27:57;1.60;;;0.80;;
29214;SDS011;16252;49.816;7.964;2022-09-09T11:36:02;1.20;;;0.73;;
29214;SDS011;16252;49.816;7.964;2022-09-09T11:38:50;1.52;;;0.80;;
29214;SDS011;16252;49.816;7.964;2022-09-09T11:41:16;1.70;;;0.63;;
29214;SDS011;16252;49.816;7.964;2022-09-09T11:43:46;2.43;;;0.87;;
29214;SDS011;16252;49.816;7.964;2022-09-09T11:46:14;2.17;;;0.80;;
29214;SDS011;16252;49.816;7.964;2022-09-09T11:48:43;2.45;;;0.77;;
29214;SDS011;16252;49.816;7.964;2022-09-09T11:51:26;0.52;;;0.40;;
29214;SDS011;16252;49.816;7.964;2022-09-09T11:53:55;2.38;;;0.60;;
29214;SDS011;16252;49.816;7.964;2022-09-09T11:56:44;1.38;;;0.73;;
29214;SDS011;16252;49.816;7.964;2022-09-09T11:59:20;2.78;;;0.70;;
29214;SDS011;16252;49.816;7.964;2022-09-09T12:02:10;1.75;;;0.60;;
29214;SDS011;16252;49.816;7.964;2022-09-09T12:05:00;1.83;;;0.53;;
29214;SDS011;16252;49.816;7.964;2022-09-09T12:07:37;2.63;;;0.65;;
29214;SDS011;16252;49.816;7.964;2022-09-09T12:17:40;0.43;;;0.30;;
29214;SDS011;16252;49.816;7.964;2022-09-09T12:20:15;0.40;;;0.40;;
29214;SDS011;16252;49.816;7.964;2022-09-09T12:28:17;2.50;;;0.77;;
29214;SDS011;16252;49.816;7.964;2022-09-09T12:31:08;1.73;;;0.38;;
29214;SDS011;16252;49.816;7.964;2022-09-09T12:33:36;0.20;;;0.20;;
29214;SDS011;16252;49.816;7.964;2022-09-09T12:36:08;1.13;;;0.30;;
29214;SDS011;16252;49.816;7.964;2022-09-09T12:38:39;0.90;;;0.40;;
29214;SDS011;16252;49.816;7.964;2022-09-09T12:41:05;0.80;;;0.50;;
29214;SDS011;16252;49.816;7.964;2022-09-09T12:43:31;0.80;;;0.40;;
29214;SDS011;16252;49.816;7.964;2022-09-09T12:46:01;0.60;;;0.30;;
29214;SDS011;16252;49.816;7.964;2022-09-09T12:48:34;0.50;;;0.25;;
29214;SDS011;16252;49.816;7.964;2022-09-09T12:53:34;1.52;;;0.43;;
29214;SDS011;16252;49.816;7.964;2022-09-09T12:56:03;1.75;;;0.40;;
29214;SDS011;16252;49.816;7.964;2022-09-09T12:58:32;0.47;;;0.20;;
29214;SDS011;16252;49.816;7.964;2022-09-09T13:00:58;0.60;;;0.30;;
29214;SDS011;16252;49.816;7.964;2022-09-09T13:03:24;0.40;;;0.40;;
29214;SDS011;16252;49.816;7.964;2022-09-09T13:05:51;0.50;;;0.30;;
29214;SDS011;16252;49.816;7.964;2022-09-09T13:08:18;2.15;;;0.52;;
29214;SDS011;16252;49.816;7.964;2022-09-09T13:10:52;1.90;;;0.30;;
29214;SDS011;16252;49.816;7.964;2022-09-09T13:13:23;1.20;;;0.43;;
29214;SDS011;16252;49.816;7.964;2022-09-09T13:16:02;0.85;;;0.40;;
29214;SDS011;16252;49.816;7.964;2022-09-09T13:18:29;2.67;;;0.52;;
29214;SDS011;16252;49.816;7.964;2022-09-09T13:20:58;0.85;;;0.50;;
29214;SDS011;16252;49.816;7.964;2022-09-09T13:23:28;1.45;;;0.57;;
29214;SDS011;16252;49.816;7.964;2022-09-09T13:25:59;2.17;;;0.60;;
29214;SDS011;16252;49.816;7.964;2022-09-09T13:28:27;1.85;;;0.68;;
29214;SDS011;16252;49.816;7.964;2022-09-09T13:30:59;1.20;;;0.40;;
29214;SDS011;16252;49.816;7.964;2022-09-09T13:33:30;1.05;;;0.40;;
29214;SDS011;16252;49.816;7.964;2022-09-09T13:36:02;0.60;;;0.43;;
29214;SDS011;16252;49.816;7.964;2022-09-09T13:38:40;3.22;;;0.70;;
29214;SDS011;16252;49.816;7.964;2022-09-09T13:41:19;2.05;;;0.60;;
29214;SDS011;16252;49.816;7.964;2022-09-09T13:43:48;1.10;;;0.52;;
29214;SDS011;16252;49.816;7.964;2022-09-09T13:48:58;0.90;;;0.60;;
29214;SDS011;16252;49.816;7.964;2022-09-09T13:51:44;1.17;;;0.50;;
29214;SDS011;16252;49.816;7.964;2022-09-09T13:54:12;1.65;;;0.45;;
29214;SDS011;16252;49.816;7.964;2022-09-09T13:56:39;0.70;;;0.47;;
29214;SDS011;16252;49.816;7.964;2022-09-09T13:59:09;2.47;;;0.88;;
29214;SDS011;16252;49.816;7.964;2022-09-09T14:01:36;2.40;;;0.60;;
29214;SDS011;16252;49.816;7.964;2022-09-09T14:04:02;1.00;;;0.50;;
29214;SDS011;16252;49.816;7.964;2022-09-09T14:06:28;1.88;;;0.63;;
29214;SDS011;16252;49.816;7.964;2022-09-09T14:08:54;1.27;;;0.50;;
29214;SDS011;16252;49.816;7.964;2022-09-09T14:11:19;0.80;;;0.40;;
29214;SDS011;16252;49.816;7.964;2022-09-09T14:13:46;1.60;;;0.60;;
29214;SDS011;16252;49.816;7.964;2022-09-09T14:16:12;2.70;;;0.57;;
29214;SDS011;16252;49.816;7.964;2022-09-09T14:18:37;1.98;;;0.50;;
29214;SDS011;16252;49.816;7.964;2022-09-09T14:21:03;4.60;;;0.85;;
29214;SDS011;16252;49.816;7.964;2022-09-09T14:23:29;0.85;;;0.40;;
29214;SDS011;16252;49.816;7.964;2022-09-09T14:25:54;3.85;;;1.70;;
29214;SDS011;16252;49.816;7.964;2022-09-09T14:28:20;6.95;;;3.63;;
29214;SDS011;16252;49.816;7.964;2022-09-09T14:30:45;7.00;;;4.35;;
29214;SDS011;16252;49.816;7.964;2022-09-09T14:33:12;3.95;;;2.15;;
29214;SDS011;16252;49.816;7.964;2022-09-09T14:35:39;2.55;;;1.70;;
29214;SDS011;16252;49.816;7.964;2022-09-09T14:38:06;4.00;;;1.73;;
29214;SDS011;16252;49.816;7.964;2022-09-09T14:40:33;2.78;;;1.50;;
29214;SDS011;16252;49.816;7.964;2022-09-09T14:42:59;0.77;;;0.68;;
29214;SDS011;16252;49.816;7.964;2022-09-09T14:45:24;2.20;;;0.73;;
29214;SDS011;16252;49.816;7.964;2022-09-09T14:47:51;1.48;;;0.80;;
29214;SDS011;16252;49.816;7.964;2022-09-09T14:50:17;1.17;;;0.50;;
29214;SDS011;16252;49.816;7.964;2022-09-09T14:52:46;1.63;;;0.60;;
29214;SDS011;16252;49.816;7.964;2022-09-09T14:55:11;1.73;;;0.47;;
29214;SDS011;16252;49.816;7.964;2022-09-09T14:57:37;1.42;;;0.50;;
29214;SDS011;16252;49.816;7.964;2022-09-09T15:00:04;2.28;;;0.60;;
29214;SDS011;16252;49.816;7.964;2022-09-09T15:02:30;2.45;;;0.60;;
29214;SDS011;16252;49.816;7.964;2022-09-09T15:04:56;0.65;;;0.60;;
29214;SDS011;16252;49.816;7.964;2022-09-09T15:07:22;1.95;;;0.70;;
29214;SDS011;16252;49.816;7.964;2022-09-09T15:09:48;1.48;;;0.43;;
29214;SDS011;16252;49.816;7.964;2022-09-09T15:12:14;1.00;;;0.50;;
29214;SDS011;16252;49.816;7.964;2022-09-09T15:14:39;0.50;;;0.38;;
29214;SDS011;16252;49.816;7.964;2022-09-09T15:17:05;1.63;;;0.70;;
29214;SDS011;16252;49.816;7.964;2022-09-09T15:19:30;1.73;;;0.60;;
29214;SDS011;16252;49.816;7.964;2022-09-09T15:21:56;1.05;;;0.60;;
29214;SDS011;16252;49.816;7.964;2022-09-09T15:24:22;0.77;;;0.40;;
29214;SDS011;16252;49.816;7.964;2022-09-09T15:26:47;1.38;;;0.77;;
29214;SDS011;16252;49.816;7.964;2022-09-09T15:29:13;0.93;;;0.30;;
29214;SDS011;16252;49.816;7.964;2022-09-09T15:31:38;1.02;;;0.45;;
29214;SDS011;16252;49.816;7.964;2022-09-09T15:34:04;0.65;;;0.52;;
29214;SDS011;16252;49.816;7.964;2022-09-09T15:36:32;0.98;;;0.60;;
29214;SDS011;16252;49.816;7.964;2022-09-09T15:38:59;0.95;;;0.47;;
29214;SDS011;16252;49.816;7.964;2022-09-09T15:41:25;1.27;;;0.60;;
29214;SDS011;16252;49.816;7.964;2022-09-09T15:43:52;0.73;;;0.35;;
29214;SDS011;16252;49.816;7.964;2022-09-09T15:46:31;1.10;;;0.47;;
29214;SDS011;16252;49.816;7.964;2022-09-09T15:49:05;0.60;;;0.35;;
29214;SDS011;16252;49.816;7.964;2022-09-09T15:51:30;0.30;;;0.30;;
29214;SDS011;16252;49.816;7.964;2022-09-09T15:53:57;1.17;;;0.30;;
29214;SDS011;16252;49.816;7.964;2022-09-09T15:56:24;4.20;;;0.65;;
29214;SDS011;16252;49.816;7.964;2022-09-09T15:58:52;0.90;;;0.43;;
29214;SDS011;16252;49.816;7.964;2022-09-09T16:01:18;2.65;;;0.45;;
29214;SDS011;16252;49.816;7.964;2022-09-09T16:03:44;1.20;;;0.47;;
29214;SDS011;16252;49.816;7.964;2022-09-09T16:06:11;1.25;;;0.50;;
29214;SDS011;16252;49.816;7.964;2022-09-09T16:08:38;1.15;;;0.60;;
29214;SDS011;16252;49.816;7.964;2022-09-09T16:11:09;1.17;;;0.50;;
29214;SDS011;16252;49.816;7.964;2022-09-09T16:13:41;1.52;;;0.55;;
29214;SDS011;16252;49.816;7.964;2022-09-09T16:16:08;0.85;;;0.45;;
29214;SDS011;16252;49.816;7.964;2022-09-09T16:18:36;2.67;;;0.38;;
29214;SDS011;16252;49.816;7.964;2022-09-09T16:21:03;3.42;;;0.80;;
29214;SDS011;16252;49.816;7.964;2022-09-09T16:23:30;0.82;;;0.60;;
29214;SDS011;16252;49.816;7.964;2022-09-09T16:25:56;1.75;;;0.60;;
29214;SDS011;16252;49.816;7.964;2022-09-09T16:28:21;4.40;;;0.63;;
29214;SDS011;16252;49.816;7.964;2022-09-09T16:30:48;1.05;;;0.45;;
29214;SDS011;16252;49.816;7.964;2022-09-09T16:33:14;1.02;;;0.52;;
29214;SDS011;16252;49.816;7.964;2022-09-09T16:35:40;1.55;;;0.60;;
29214;SDS011;16252;49.816;7.964;2022-09-09T16:38:05;1.45;;;0.55;;
29214;SDS011;16252;49.816;7.964;2022-09-09T16:40:33;1.08;;;0.50;;
29214;SDS011;16252;49.816;7.964;2022-09-09T16:42:59;0.93;;;0.40;;
29214;SDS011;16252;49.816;7.964;2022-09-09T16:45:25;1.05;;;0.80;;
29214;SDS011;16252;49.816;7.964;2022-09-09T16:47:50;1.15;;;0.65;;
29214;SDS011;16252;49.816;7.964;2022-09-09T16:50:16;1.70;;;0.55;;
29214;SDS011;16252;49.816;7.964;2022-09-09T16:52:41;1.05;;;0.70;;
29214;SDS011;16252;49.816;7.964;2022-09-09T16:55:06;0.95;;;0.60;;
29214;SDS011;16252;49.816;7.964;2022-09-09T16:57:32;0.40;;;0.40;;
29214;SDS011;16252;49.816;7.964;2022-09-09T16:59:57;0.57;;;0.50;;
29214;SDS011;16252;49.816;7.964;2022-09-09T17:02:24;0.85;;;0.40;;